createdAt,value
2019-04-25T00:00:13.447Z,75.61
2019-04-25T00:05:21.195Z,75.43
2019-04-25T00:10:26.846Z,75.57
2019-04-25T00:15:32.910Z,76.73
2019-04-25T00:20:42.649Z,75.77
2019-04-25T00:25:59.091Z,76.74
2019-04-25T00:31:06.371Z,75.92
2019-04-25T00:36:13.247Z,76.22
2019-04-25T00:41:18.708Z,76.85
2019-04-25T00:46:24.347Z,76.62
2019-04-25T00:51:30.007Z,76.74
2019-04-25T00:56:36.067Z,76.68
2019-04-25T01:01:46.854Z,77.46
2019-04-25T01:06:53.984Z,76.62
2019-04-25T01:11:59.607Z,76.12
2019-04-25T01:17:05.075Z,76.22
2019-04-25T01:22:10.887Z,76.14
2019-04-25T01:27:16.511Z,76.39
2019-04-25T01:32:23.806Z,76.53
2019-04-25T01:37:31.026Z,76.98
2019-04-25T01:42:47.956Z,77.22
2019-04-25T01:47:54.328Z,77.10
2019-04-25T01:53:00.931Z,77.26
2019-04-25T01:58:06.449Z,77.83
2019-04-25T02:03:13.631Z,77.10
2019-04-25T02:08:19.106Z,77.40
2019-04-25T02:13:26.308Z,77.75
2019-04-25T02:18:33.501Z,78.10
2019-04-25T02:23:39.507Z,77.79
2019-04-25T02:28:45.027Z,78.14
2019-04-25T02:33:50.527Z,78.53
2019-04-25T02:39:00.529Z,78.11
2019-04-25T02:44:09.245Z,78.34
2019-04-25T02:49:32.933Z,78.25
2019-04-25T02:54:30.167Z,78.75
2019-04-25T02:59:37.065Z,79.26
2019-04-25T03:04:44.466Z,79.61
2019-04-25T03:09:50.487Z,79.51
2019-04-25T03:14:56.147Z,79.67
2019-04-25T03:20:08.066Z,79.60
2019-04-25T03:25:14.501Z,79.88
2019-04-25T03:30:20.252Z,79.39
2019-04-25T03:35:25.787Z,79.31
2019-04-25T03:40:31.416Z,78.98
2019-04-25T03:45:38.026Z,79.27
2019-04-25T03:50:44.142Z,79.13
2019-04-25T03:55:49.926Z,79.02
2019-04-25T04:00:55.546Z,79.73
2019-04-25T04:06:01.027Z,79.13
2019-04-25T04:11:07.732Z,79.72
2019-04-25T04:16:15.720Z,79.19
2019-04-25T04:21:36.086Z,79.19
2019-04-25T04:26:43.104Z,79.02
2019-04-25T04:31:48.666Z,78.77
2019-04-25T04:36:54.187Z,78.32
2019-04-25T04:41:59.976Z,78.10
2019-04-25T04:47:05.485Z,77.20
2019-04-25T04:52:11.006Z,77.01
2019-04-25T04:57:27.021Z,77.12
2019-04-25T05:02:28.626Z,75.25
2019-04-25T05:07:41.787Z,73.82
2019-04-25T05:12:47.287Z,75.11
2019-04-25T05:17:54.152Z,72.73
2019-04-25T05:22:59.986Z,70.83
2019-04-25T05:28:06.108Z,69.76
2019-04-25T05:33:11.687Z,67.18
2019-04-25T05:38:17.673Z,65.56
2019-04-25T05:43:24.896Z,62.40
2019-04-25T05:48:30.927Z,59.95
2019-04-25T05:53:36.426Z,59.95
2019-04-25T05:58:43.842Z,58.63
2019-04-25T06:03:49.279Z,56.81
2019-04-25T06:08:56.367Z,55.27
2019-04-25T06:14:03.513Z,55.30
2019-04-25T06:19:14.149Z,50.62
2019-04-25T06:24:28.708Z,50.24
2019-04-25T06:29:34.803Z,49.82
2019-04-25T06:34:41.988Z,51.75
2019-04-25T06:39:47.592Z,53.95
2019-04-25T06:44:54.726Z,53.65
2019-04-25T06:50:00.247Z,51.73
2019-04-25T06:55:07.326Z,51.41
2019-04-25T07:00:15.328Z,53.46
2019-04-25T07:05:28.966Z,52.30
2019-04-25T07:10:29.452Z,54.31
2019-04-25T07:15:35.371Z,50.45
2019-04-25T07:20:40.924Z,50.37
2019-04-25T07:25:48.076Z,49.79
2019-04-25T07:31:13.826Z,49.26
2019-04-25T07:36:19.688Z,49.23
2019-04-25T07:41:26.029Z,50.56
2019-04-25T07:46:32.439Z,51.02
2019-04-25T07:51:39.228Z,50.20
2019-04-25T07:56:44.758Z,47.19
2019-04-25T08:01:50.263Z,46.54
2019-04-25T08:06:55.866Z,47.16
2019-04-25T08:12:03.265Z,46.01
2019-04-25T08:17:10.687Z,48.12
2019-04-25T08:22:17.568Z,46.01
2019-04-25T08:27:23.231Z,44.07
2019-04-25T08:32:28.927Z,48.77
2019-04-25T08:37:35.642Z,45.49
2019-04-25T08:42:41.931Z,49.66
2019-04-25T08:47:47.746Z,46.01
2019-04-25T08:52:54.392Z,46.84
2019-04-25T08:58:01.568Z,46.16
2019-04-25T09:03:24.265Z,46.07
2019-04-25T09:08:29.932Z,47.38
2019-04-25T09:13:36.854Z,44.96
2019-04-25T09:18:45.222Z,45.52
2019-04-25T09:24:26.845Z,47.43
2019-04-25T09:29:34.188Z,44.97
2019-04-25T09:34:40.776Z,46.96
2019-04-25T09:40:00.072Z,45.72
2019-04-25T09:45:27.106Z,43.64
2019-04-25T09:50:34.238Z,43.97
2019-04-25T09:55:41.744Z,41.20
2019-04-25T10:00:51.699Z,44.02
2019-04-25T10:05:57.388Z,43.48
2019-04-25T10:11:04.044Z,41.97
2019-04-25T10:16:11.866Z,42.65
2019-04-25T10:21:18.405Z,42.85
2019-04-25T10:26:24.546Z,43.51
2019-04-25T10:31:30.167Z,44.86
2019-04-25T10:36:35.705Z,40.45
2019-04-25T10:41:41.518Z,40.47
2019-04-25T10:46:47.373Z,39.51
2019-04-25T10:51:54.227Z,40.97
2019-04-25T10:56:59.968Z,42.31
2019-04-25T11:02:06.617Z,43.72
2019-04-25T11:07:13.774Z,44.01
2019-04-25T11:12:20.187Z,42.32
2019-04-25T11:17:25.753Z,41.04
2019-04-25T11:22:31.607Z,45.11
2019-04-25T11:27:37.166Z,40.83
2019-04-25T11:32:44.787Z,42.53
2019-04-25T11:37:52.567Z,42.66
2019-04-25T11:43:06.233Z,43.58
2019-04-25T11:48:09.465Z,43.18
2019-04-25T11:53:15.327Z,40.38
2019-04-25T11:58:21.149Z,39.67
2019-04-25T12:03:27.088Z,40.97
2019-04-25T12:08:33.563Z,41.77
2019-04-25T12:13:39.528Z,40.91
2019-04-25T12:18:47.977Z,42.97
2019-04-25T12:23:52.687Z,41.93
2019-04-25T12:28:58.553Z,42.52
2019-04-25T12:34:04.305Z,40.44
2019-04-25T12:39:10.806Z,41.31
2019-04-25T12:44:33.108Z,41.32
2019-04-25T12:49:38.538Z,43.26
2019-04-25T12:54:45.247Z,43.11
2019-04-25T12:59:51.274Z,43.62
2019-04-25T13:04:56.976Z,43.82
2019-04-25T13:10:02.527Z,44.77
2019-04-25T13:15:09.805Z,41.99
2019-04-25T13:20:15.966Z,41.86
2019-04-25T13:25:24.290Z,43.50
2019-04-25T13:30:40.679Z,41.44
2019-04-25T13:36:04.089Z,42.64
2019-04-25T13:41:10.068Z,43.19
2019-04-25T13:46:19.963Z,43.84
2019-04-25T13:51:24.590Z,44.71
2019-04-25T13:56:30.682Z,44.64
2019-04-25T14:01:36.542Z,43.43
2019-04-25T14:06:42.332Z,46.32
2019-04-25T14:11:47.746Z,45.08
2019-04-25T14:17:02.889Z,44.74
2019-04-25T14:22:08.167Z,46.41
2019-04-25T14:27:14.506Z,44.33
2019-04-25T14:32:21.426Z,46.00
2019-04-25T14:37:31.795Z,46.72
2019-04-25T14:42:35.367Z,48.47
2019-04-25T14:47:41.213Z,47.01
2019-04-25T14:52:46.747Z,47.75
2019-04-25T14:57:54.067Z,50.80
2019-04-25T15:02:59.689Z,49.54
2019-04-25T15:08:05.550Z,48.79
2019-04-25T15:13:11.278Z,49.67
2019-04-25T15:18:16.915Z,48.83
2019-04-25T15:23:23.189Z,50.75
2019-04-25T15:28:29.845Z,50.55
2019-04-25T15:33:35.787Z,51.38
2019-04-25T15:38:48.567Z,51.67
2019-04-25T15:44:04.746Z,51.48
2019-04-25T15:49:10.638Z,52.14
2019-04-25T15:54:16.189Z,52.85
2019-04-25T15:59:21.849Z,52.53
2019-04-25T16:04:27.368Z,52.34
2019-04-25T16:09:34.575Z,52.28
2019-04-25T16:14:40.126Z,54.17
2019-04-25T16:19:50.226Z,54.77
2019-04-25T16:24:55.898Z,53.26
2019-04-25T16:30:01.554Z,56.17
2019-04-25T16:35:09.228Z,56.19
2019-04-25T16:40:15.227Z,57.69
2019-04-25T16:45:21.553Z,58.27
2019-04-25T16:50:27.926Z,57.17
2019-04-25T16:55:34.294Z,58.77
2019-04-25T17:00:47.388Z,61.16
2019-04-25T17:05:53.036Z,61.89
2019-04-25T17:10:58.769Z,62.17
2019-04-25T17:16:06.007Z,63.02
2019-04-25T17:21:12.068Z,63.89
2019-04-25T17:26:19.206Z,65.58
2019-04-25T17:31:32.462Z,65.56
2019-04-25T17:36:40.772Z,65.88
2019-04-25T17:41:46.733Z,66.60
2019-04-25T17:46:52.247Z,67.53
2019-04-25T17:51:57.907Z,67.67
2019-04-25T17:57:03.627Z,67.81
2019-04-25T18:02:09.552Z,68.32
2019-04-25T18:07:15.233Z,68.80
2019-04-25T18:12:21.286Z,70.00
2019-04-25T18:17:27.327Z,70.35
2019-04-25T18:22:50.007Z,70.71
2019-04-25T18:28:00.225Z,71.15
2019-04-25T18:33:22.509Z,71.70
2019-04-25T18:38:32.687Z,72.56
2019-04-25T18:43:42.872Z,72.92
2019-04-25T18:48:48.625Z,72.55
2019-04-25T18:53:58.866Z,73.58
2019-04-25T18:59:15.329Z,73.79
2019-04-25T19:04:22.484Z,74.61
2019-04-25T19:09:28.114Z,74.36
2019-04-25T19:14:33.589Z,74.52
2019-04-25T19:19:39.802Z,74.95
2019-04-25T19:24:47.193Z,75.09
2019-04-25T19:29:53.513Z,75.14
2019-04-25T19:34:59.220Z,75.86
2019-04-25T19:40:07.326Z,76.18
2019-04-25T19:45:13.068Z,75.90
2019-04-25T19:50:18.507Z,76.09
2019-04-25T19:55:25.307Z,77.19
2019-04-25T20:00:30.838Z,77.02
2019-04-25T20:05:38.126Z,77.18
2019-04-25T20:10:45.233Z,77.30
2019-04-25T20:15:51.753Z,77.52
2019-04-25T20:20:58.894Z,77.36
2019-04-25T20:26:05.567Z,77.36
2019-04-25T20:31:11.047Z,77.64
2019-04-25T20:36:17.892Z,77.26
2019-04-25T20:41:23.852Z,77.49
2019-04-25T20:46:29.468Z,78.23
2019-04-25T20:51:34.987Z,77.90
2019-04-25T20:56:40.647Z,77.57
2019-04-25T21:01:47.156Z,77.89
2019-04-25T21:06:54.729Z,77.50
2019-04-25T21:12:00.532Z,78.08
2019-04-25T21:17:13.546Z,78.25
2019-04-25T21:22:19.051Z,77.98
2019-04-25T21:27:24.728Z,78.74
2019-04-25T21:32:31.827Z,80.33
2019-04-25T21:37:37.986Z,79.62
2019-04-25T21:42:45.488Z,79.61
2019-04-25T21:47:52.347Z,79.60
2019-04-25T21:52:59.143Z,79.39
2019-04-25T21:58:05.346Z,79.91
2019-04-25T22:03:11.527Z,79.79
2019-04-25T22:08:18.454Z,79.38
2019-04-25T22:13:24.064Z,79.44
2019-04-25T22:18:29.947Z,79.37
2019-04-25T22:23:35.727Z,79.44
2019-04-25T22:28:42.446Z,79.69
2019-04-25T22:33:59.744Z,80.29
2019-04-25T22:39:11.948Z,80.50
2019-04-25T22:44:19.438Z,80.56
2019-04-25T22:49:25.686Z,80.58
2019-04-25T22:54:31.526Z,80.57
2019-04-25T22:59:37.507Z,81.10
2019-04-25T23:04:44.846Z,80.54
2019-04-25T23:09:52.067Z,80.66
2019-04-25T23:14:57.947Z,81.17
2019-04-25T23:20:05.752Z,81.09
2019-04-25T23:25:14.137Z,81.63
2019-04-25T23:30:21.628Z,81.67
2019-04-25T23:35:31.363Z,82.05
2019-04-25T23:40:34.367Z,81.95
2019-04-25T23:45:40.167Z,81.20
2019-04-25T23:50:45.946Z,81.67
2019-04-25T23:55:51.566Z,81.82
